Aviation Digital Data Service (ADDS)

Output produced by METARs form (0442 UTC 24 January 2019)
found at http://www.aviationweather.gov/metar/data/
 
METAR text: LYTV 240430Z VRB01KT 9999 FEW020 SCT030 06/05 Q0994
Conditions at: LYTV (TIVAT , CS) observed 0430 UTC 24 January 2019
Temperature: 6.0°C (43°F)
Dewpoint: 5.0°C (41°F) [RH = 93%]
Pressure (altimeter): 29.35 inches Hg (994.0 mb)
Winds: variable direction winds at 1 MPH (1 knots; 0.5 m/s)
Visibility: 6 or more miles (10+ km)
Ceiling: at least 12,000 feet AGL
Clouds: few clouds at 2000 feet AGL
scattered clouds at 3000 feet AGL
Weather: no significant weather observed at this time

METAR text: LYTV 240400Z VRB01KT 9999 FEW020 SCT030 BKN073 05/05 Q0994
Conditions at: LYTV (TIVAT , CS) observed 0400 UTC 24 January 2019
Temperature: 5.0°C (41°F)
Dewpoint: 5.0°C (41°F) [RH = 100%]
Pressure (altimeter): 29.35 inches Hg (994.0 mb)
Winds: variable direction winds at 1 MPH (1 knots; 0.5 m/s)
Visibility: 6 or more miles (10+ km)
Ceiling: 7300 feet AGL
Clouds: few clouds at 2000 feet AGL
scattered clouds at 3000 feet AGL
broken clouds at 7300 feet AGL
Weather: no significant weather observed at this time

METAR text: LYTV 240330Z VRB01KT 9999 FEW020 SCT030 BKN080 05/04 Q0994
Conditions at: LYTV (TIVAT , CS) observed 0330 UTC 24 January 2019
Temperature: 5.0°C (41°F)
Dewpoint: 4.0°C (39°F) [RH = 93%]
Pressure (altimeter): 29.35 inches Hg (994.0 mb)
Winds: variable direction winds at 1 MPH (1 knots; 0.5 m/s)
Visibility: 6 or more miles (10+ km)
Ceiling: 8000 feet AGL
Clouds: few clouds at 2000 feet AGL
scattered clouds at 3000 feet AGL
broken clouds at 8000 feet AGL
Weather: no significant weather observed at this time

METAR text: LYTV 240300Z 00000KT 9999 FEW020 SCT033 04/04 Q0994
Conditions at: LYTV (TIVAT , CS) observed 0300 UTC 24 January 2019
Temperature: 4.0°C (39°F)
Dewpoint: 4.0°C (39°F) [RH = 100%]
Pressure (altimeter): 29.35 inches Hg (994.0 mb)
Winds: calm
Visibility: 6 or more miles (10+ km)
Ceiling: at least 12,000 feet AGL
Clouds: few clouds at 2000 feet AGL
scattered clouds at 3300 feet AGL
Weather: no significant weather observed at this time

METAR text: LYTV 240200Z VRB01KT 9999 FEW020 SCT033 05/04 Q0993
Conditions at: LYTV (TIVAT , CS) observed 0200 UTC 24 January 2019
Temperature: 5.0°C (41°F)
Dewpoint: 4.0°C (39°F) [RH = 93%]
Pressure (altimeter): 29.32 inches Hg (993.0 mb)
Winds: variable direction winds at 1 MPH (1 knots; 0.5 m/s)
Visibility: 6 or more miles (10+ km)
Ceiling: at least 12,000 feet AGL
Clouds: few clouds at 2000 feet AGL
scattered clouds at 3300 feet AGL
Weather: no significant weather observed at this time

METAR text: LYTV 240130Z VRB01KT 9999 FEW030 04/04 Q0993
Conditions at: LYTV (TIVAT , CS) observed 0130 UTC 24 January 2019
Temperature: 4.0°C (39°F)
Dewpoint: 4.0°C (39°F) [RH = 100%]
Pressure (altimeter): 29.32 inches Hg (993.0 mb)
Winds: variable direction winds at 1 MPH (1 knots; 0.5 m/s)
Visibility: 6 or more miles (10+ km)
Ceiling: at least 12,000 feet AGL
Clouds: few clouds at 3000 feet AGL
Weather: no significant weather observed at this time

METAR text: LYTV 240100Z 00000KT CAVOK 05/05 Q0993
Conditions at: LYTV (TIVAT , CS) observed 0100 UTC 24 January 2019
Temperature: 5.0°C (41°F)
Dewpoint: 5.0°C (41°F) [RH = 100%]
Pressure (altimeter): 29.32 inches Hg (993.0 mb)
Winds: calm
Visibility: 6 or more miles (10+ km)
Ceiling: ceiling and visibility are OK
Clouds: unknown
Weather: no significant weather observed at this time

METAR text: LYTV 240030Z VRB01KT CAVOK 05/05 Q0993
Conditions at: LYTV (TIVAT , CS) observed 0030 UTC 24 January 2019
Temperature: 5.0°C (41°F)
Dewpoint: 5.0°C (41°F) [RH = 100%]
Pressure (altimeter): 29.32 inches Hg (993.0 mb)
Winds: variable direction winds at 1 MPH (1 knots; 0.5 m/s)
Visibility: 6 or more miles (10+ km)
Ceiling: ceiling and visibility are OK
Clouds: unknown
Weather: no significant weather observed at this time

METAR text: LYTV 240000Z 00000KT CAVOK 05/05 Q0993
Conditions at: LYTV (TIVAT , CS) observed 0000 UTC 24 January 2019
Temperature: 5.0°C (41°F)
Dewpoint: 5.0°C (41°F) [RH = 100%]
Pressure (altimeter): 29.32 inches Hg (993.0 mb)
Winds: calm
Visibility: 6 or more miles (10+ km)
Ceiling: ceiling and visibility are OK
Clouds: unknown
Weather: no significant weather observed at this time

METAR text: LYTV 232330Z VRB01KT 9999 SCT057 05/05 Q0993
Conditions at: LYTV (TIVAT , CS) observed 2330 UTC 23 January 2019
Temperature: 5.0°C (41°F)
Dewpoint: 5.0°C (41°F) [RH = 100%]
Pressure (altimeter): 29.32 inches Hg (993.0 mb)
Winds: variable direction winds at 1 MPH (1 knots; 0.5 m/s)
Visibility: 6 or more miles (10+ km)
Ceiling: at least 12,000 feet AGL
Clouds: scattered clouds at 5700 feet AGL
Weather: no significant weather observed at this time

METAR text: LYTV 232300Z 09001KT 9999 SCT060 06/05 Q0993
Conditions at: LYTV (TIVAT , CS) observed 2300 UTC 23 January 2019
Temperature: 6.0°C (43°F)
Dewpoint: 5.0°C (41°F) [RH = 93%]
Pressure (altimeter): 29.32 inches Hg (993.0 mb)
Winds: from the E (90 degrees) at 1 MPH (1 knots; 0.5 m/s)
Visibility: 6 or more miles (10+ km)
Ceiling: at least 12,000 feet AGL
Clouds: scattered clouds at 6000 feet AGL
Weather: no significant weather observed at this time

METAR text: LYTV 232230Z VRB02KT 9999 SCT060 06/05 Q0993
Conditions at: LYTV (TIVAT , CS) observed 2230 UTC 23 January 2019
Temperature: 6.0°C (43°F)
Dewpoint: 5.0°C (41°F) [RH = 93%]
Pressure (altimeter): 29.32 inches Hg (993.0 mb)
Winds: variable direction winds at 2 MPH (2 knots; 1.0 m/s)
Visibility: 6 or more miles (10+ km)
Ceiling: at least 12,000 feet AGL
Clouds: scattered clouds at 6000 feet AGL
Weather: no significant weather observed at this time

METAR text: LYTV 232200Z VRB02KT 9999 SCT060 06/05 Q0993
Conditions at: LYTV (TIVAT , CS) observed 2200 UTC 23 January 2019
Temperature: 6.0°C (43°F)
Dewpoint: 5.0°C (41°F) [RH = 93%]
Pressure (altimeter): 29.32 inches Hg (993.0 mb)
Winds: variable direction winds at 2 MPH (2 knots; 1.0 m/s)
Visibility: 6 or more miles (10+ km)
Ceiling: at least 12,000 feet AGL
Clouds: scattered clouds at 6000 feet AGL
Weather: no significant weather observed at this time

METAR text: LYTV 232130Z VRB02KT CAVOK 06/05 Q0994
Conditions at: LYTV (TIVAT , CS) observed 2130 UTC 23 January 2019
Temperature: 6.0°C (43°F)
Dewpoint: 5.0°C (41°F) [RH = 93%]
Pressure (altimeter): 29.35 inches Hg (994.0 mb)
Winds: variable direction winds at 2 MPH (2 knots; 1.0 m/s)
Visibility: 6 or more miles (10+ km)
Ceiling: ceiling and visibility are OK
Clouds: unknown
Weather: no significant weather observed at this time

METAR text: LYTV 232100Z VRB01KT CAVOK 06/05 Q0994
Conditions at: LYTV (TIVAT , CS) observed 2100 UTC 23 January 2019
Temperature: 6.0°C (43°F)
Dewpoint: 5.0°C (41°F) [RH = 93%]
Pressure (altimeter): 29.35 inches Hg (994.0 mb)
Winds: variable direction winds at 1 MPH (1 knots; 0.5 m/s)
Visibility: 6 or more miles (10+ km)
Ceiling: ceiling and visibility are OK
Clouds: unknown
Weather: no significant weather observed at this time

METAR text: LYTV 232030Z 00000KT CAVOK 06/05 Q0994
Conditions at: LYTV (TIVAT , CS) observed 2030 UTC 23 January 2019
Temperature: 6.0°C (43°F)
Dewpoint: 5.0°C (41°F) [RH = 93%]
Pressure (altimeter): 29.35 inches Hg (994.0 mb)
Winds: calm
Visibility: 6 or more miles (10+ km)
Ceiling: ceiling and visibility are OK
Clouds: unknown
Weather: no significant weather observed at this time

METAR text: LYTV 232000Z VRB01KT CAVOK 06/05 Q0994
Conditions at: LYTV (TIVAT , CS) observed 2000 UTC 23 January 2019
Temperature: 6.0°C (43°F)
Dewpoint: 5.0°C (41°F) [RH = 93%]
Pressure (altimeter): 29.35 inches Hg (994.0 mb)
Winds: variable direction winds at 1 MPH (1 knots; 0.5 m/s)
Visibility: 6 or more miles (10+ km)
Ceiling: ceiling and visibility are OK
Clouds: unknown
Weather: no significant weather observed at this time

METAR text: LYTV 231930Z 17003KT 130V190 9999 SCT060 06/05 Q0994
Conditions at: LYTV (TIVAT , CS) observed 1930 UTC 23 January 2019
Temperature: 6.0°C (43°F)
Dewpoint: 5.0°C (41°F) [RH = 93%]
Pressure (altimeter): 29.35 inches Hg (994.0 mb)
Winds: from the S (170 degrees) at 3 MPH (3 knots; 1.5 m/s)
Visibility: 6 or more miles (10+ km)
Ceiling: at least 12,000 feet AGL
Clouds: scattered clouds at 6000 feet AGL
Weather: no significant weather observed at this time

METAR text: LYTV 231900Z VRB02KT 9999 FEW040 SCT060 BKN080 06/06 Q0994
Conditions at: LYTV (TIVAT , CS) observed 1900 UTC 23 January 2019
Temperature: 6.0°C (43°F)
Dewpoint: 6.0°C (43°F) [RH = 100%]
Pressure (altimeter): 29.35 inches Hg (994.0 mb)
Winds: variable direction winds at 2 MPH (2 knots; 1.0 m/s)
Visibility: 6 or more miles (10+ km)
Ceiling: 8000 feet AGL
Clouds: few clouds at 4000 feet AGL
scattered clouds at 6000 feet AGL
broken clouds at 8000 feet AGL
Weather: no significant weather observed at this time

METAR text: LYTV 231830Z VRB02KT 9999 FEW027 SCT040 BKN080 06/06 Q0995
Conditions at: LYTV (TIVAT , CS) observed 1830 UTC 23 January 2019
Temperature: 6.0°C (43°F)
Dewpoint: 6.0°C (43°F) [RH = 100%]
Pressure (altimeter): 29.38 inches Hg (995.0 mb)
Winds: variable direction winds at 2 MPH (2 knots; 1.0 m/s)
Visibility: 6 or more miles (10+ km)
Ceiling: 8000 feet AGL
Clouds: few clouds at 2700 feet AGL
scattered clouds at 4000 feet AGL
broken clouds at 8000 feet AGL
Weather: no significant weather observed at this time

METAR text: LYTV 231800Z 36001KT 9999 FEW027 SCT040 BKN080 06/06 Q0995
Conditions at: LYTV (TIVAT , CS) observed 1800 UTC 23 January 2019
Temperature: 6.0°C (43°F)
Dewpoint: 6.0°C (43°F) [RH = 100%]
Pressure (altimeter): 29.38 inches Hg (995.0 mb)
Winds: from the N (360 degrees) at 1 MPH (1 knots; 0.5 m/s)
Visibility: 6 or more miles (10+ km)
Ceiling: 8000 feet AGL
Clouds: few clouds at 2700 feet AGL
scattered clouds at 4000 feet AGL
broken clouds at 8000 feet AGL
Weather: no significant weather observed at this time

METAR text: LYTV 231730Z VRB01KT 9999 FEW027 SCT040 06/05 Q0995
Conditions at: LYTV (TIVAT , CS) observed 1730 UTC 23 January 2019
Temperature: 6.0°C (43°F)
Dewpoint: 5.0°C (41°F) [RH = 93%]
Pressure (altimeter): 29.38 inches Hg (995.0 mb)
Winds: variable direction winds at 1 MPH (1 knots; 0.5 m/s)
Visibility: 6 or more miles (10+ km)
Ceiling: at least 12,000 feet AGL
Clouds: few clouds at 2700 feet AGL
scattered clouds at 4000 feet AGL
Weather: no significant weather observed at this time

METAR text: LYTV 231700Z VRB01KT 9999 FEW027 SCT040 07/06 Q0995 NOSIG
Conditions at: LYTV (TIVAT , CS) observed 1700 UTC 23 January 2019
Temperature: 7.0°C (45°F)
Dewpoint: 6.0°C (43°F) [RH = 93%]
Pressure (altimeter): 29.38 inches Hg (995.0 mb)
Winds: variable direction winds at 1 MPH (1 knots; 0.5 m/s)
Visibility: 6 or more miles (10+ km)
Ceiling: at least 12,000 feet AGL
Clouds: few clouds at 2700 feet AGL
scattered clouds at 4000 feet AGL
Weather: no significant weather observed at this time

METAR text: LYTV 231630Z VRB02KT 9999 FEW027 SCT037 BKN047 07/06 Q0996 NOSIG
Conditions at: LYTV (TIVAT , CS) observed 1630 UTC 23 January 2019
Temperature: 7.0°C (45°F)
Dewpoint: 6.0°C (43°F) [RH = 93%]
Pressure (altimeter): 29.41 inches Hg (996.0 mb)
Winds: variable direction winds at 2 MPH (2 knots; 1.0 m/s)
Visibility: 6 or more miles (10+ km)
Ceiling: 4700 feet AGL
Clouds: few clouds at 2700 feet AGL
scattered clouds at 3700 feet AGL
broken clouds at 4700 feet AGL
Weather: no significant weather observed at this time

METAR text: LYTV 231600Z 04004KT 300V100 9999 FEW027 SCT037 BKN047 07/06 Q0995 NOSIG
Conditions at: LYTV (TIVAT , CS) observed 1600 UTC 23 January 2019
Temperature: 7.0°C (45°F)
Dewpoint: 6.0°C (43°F) [RH = 93%]
Pressure (altimeter): 29.38 inches Hg (995.0 mb)
Winds: from the NE (40 degrees) at 5 MPH (4 knots; 2.1 m/s)
Visibility: 6 or more miles (10+ km)
Ceiling: 4700 feet AGL
Clouds: few clouds at 2700 feet AGL
scattered clouds at 3700 feet AGL
broken clouds at 4700 feet AGL
Weather: no significant weather observed at this time

METAR text: LYTV 231530Z VRB01KT 9999 -RA FEW027 SCT033 BKN043 08/06 Q0996 NOSIG
Conditions at: LYTV (TIVAT , CS) observed 1530 UTC 23 January 2019
Temperature: 8.0°C (46°F)
Dewpoint: 6.0°C (43°F) [RH = 87%]
Pressure (altimeter): 29.41 inches Hg (996.0 mb)
Winds: variable direction winds at 1 MPH (1 knots; 0.5 m/s)
Visibility: 6 or more miles (10+ km)
Ceiling: 4300 feet AGL
Clouds: few clouds at 2700 feet AGL
scattered clouds at 3300 feet AGL
broken clouds at 4300 feet AGL
Weather: -RA  (light rain)

METAR text: LYTV 231500Z 13004KT 060V190 9999 -RA FEW027 SCT033 BKN043 09/04 Q0996 NOSIG
Conditions at: LYTV (TIVAT , CS) observed 1500 UTC 23 January 2019
Temperature: 9.0°C (48°F)
Dewpoint: 4.0°C (39°F) [RH = 71%]
Pressure (altimeter): 29.41 inches Hg (996.0 mb)
Winds: from the SE (130 degrees) at 5 MPH (4 knots; 2.1 m/s)
Visibility: 6 or more miles (10+ km)
Ceiling: 4300 feet AGL
Clouds: few clouds at 2700 feet AGL
scattered clouds at 3300 feet AGL
broken clouds at 4300 feet AGL
Weather: -RA  (light rain)

METAR text: LYTV 231430Z 16009KT 130V190 9999 SCT030 SCT040 10/04 Q0996 NOSIG
Conditions at: LYTV (TIVAT , CS) observed 1430 UTC 23 January 2019
Temperature: 10.0°C (50°F)
Dewpoint: 4.0°C (39°F) [RH = 66%]
Pressure (altimeter): 29.41 inches Hg (996.0 mb)
Winds: from the SSE (160 degrees) at 10 MPH (9 knots; 4.6 m/s)
Visibility: 6 or more miles (10+ km)
Ceiling: at least 12,000 feet AGL
Clouds: scattered clouds at 3000 feet AGL
scattered clouds at 4000 feet AGL
Weather: no significant weather observed at this time

METAR text: LYTV 231400Z 16012KT 9999 SCT030 SCT040 12/05 Q0996 NOSIG
Conditions at: LYTV (TIVAT , CS) observed 1400 UTC 23 January 2019
Temperature: 12.0°C (54°F)
Dewpoint: 5.0°C (41°F) [RH = 62%]
Pressure (altimeter): 29.41 inches Hg (996.0 mb)
Winds: from the SSE (160 degrees) at 14 MPH (12 knots; 6.2 m/s)
Visibility: 6 or more miles (10+ km)
Ceiling: at least 12,000 feet AGL
Clouds: scattered clouds at 3000 feet AGL
scattered clouds at 4000 feet AGL
Weather: no significant weather observed at this time

METAR text: LYTV 231330Z 15007KT 120V180 9999 FEW030 SCT040 12/06 Q0997 NOSIG
Conditions at: LYTV (TIVAT , CS) observed 1330 UTC 23 January 2019
Temperature: 12.0°C (54°F)
Dewpoint: 6.0°C (43°F) [RH = 67%]
Pressure (altimeter): 29.44 inches Hg (997.0 mb)
Winds: from the SSE (150 degrees) at 8 MPH (7 knots; 3.6 m/s)
Visibility: 6 or more miles (10+ km)
Ceiling: at least 12,000 feet AGL
Clouds: few clouds at 3000 feet AGL
scattered clouds at 4000 feet AGL
Weather: no significant weather observed at this time

METAR text: LYTV 231300Z 16006KT 9999 FEW030 SCT040 12/05 Q0997 NOSIG
Conditions at: LYTV (TIVAT , CS) observed 1300 UTC 23 January 2019
Temperature: 12.0°C (54°F)
Dewpoint: 5.0°C (41°F) [RH = 62%]
Pressure (altimeter): 29.44 inches Hg (997.0 mb)
Winds: from the SSE (160 degrees) at 7 MPH (6 knots; 3.1 m/s)
Visibility: 6 or more miles (10+ km)
Ceiling: at least 12,000 feet AGL
Clouds: few clouds at 3000 feet AGL
scattered clouds at 4000 feet AGL
Weather: no significant weather observed at this time

METAR text: LYTV 231230Z 14009KT 110V170 9999 FEW030 SCT040 12/05 Q0998 NOSIG
Conditions at: LYTV (TIVAT , CS) observed 1230 UTC 23 January 2019
Temperature: 12.0°C (54°F)
Dewpoint: 5.0°C (41°F) [RH = 62%]
Pressure (altimeter): 29.47 inches Hg (998.0 mb)
Winds: from the SE (140 degrees) at 10 MPH (9 knots; 4.6 m/s)
Visibility: 6 or more miles (10+ km)
Ceiling: at least 12,000 feet AGL
Clouds: few clouds at 3000 feet AGL
scattered clouds at 4000 feet AGL
Weather: no significant weather observed at this time

METAR text: LYTV 231200Z 16011KT 120V200 9999 FEW030 SCT040 13/07 Q0998 NOSIG
Conditions at: LYTV (TIVAT , CS) observed 1200 UTC 23 January 2019
Temperature: 13.0°C (55°F)
Dewpoint: 7.0°C (45°F) [RH = 67%]
Pressure (altimeter): 29.47 inches Hg (998.0 mb)
Winds: from the SSE (160 degrees) at 13 MPH (11 knots; 5.7 m/s)
Visibility: 6 or more miles (10+ km)
Ceiling: at least 12,000 feet AGL
Clouds: few clouds at 3000 feet AGL
scattered clouds at 4000 feet AGL
Weather: no significant weather observed at this time

METAR text: LYTV 231130Z 16009KT 140V200 9999 SCT030 SCT040 13/07 Q0998 NOSIG
Conditions at: LYTV (TIVAT , CS) observed 1130 UTC 23 January 2019
Temperature: 13.0°C (55°F)
Dewpoint: 7.0°C (45°F) [RH = 67%]
Pressure (altimeter): 29.47 inches Hg (998.0 mb)
Winds: from the SSE (160 degrees) at 10 MPH (9 knots; 4.6 m/s)
Visibility: 6 or more miles (10+ km)
Ceiling: at least 12,000 feet AGL
Clouds: scattered clouds at 3000 feet AGL
scattered clouds at 4000 feet AGL
Weather: no significant weather observed at this time

METAR text: LYTV 231100Z 16009KT 130V190 9999 SCT030 SCT040 14/06 Q0999 NOSIG
Conditions at: LYTV (TIVAT , CS) observed 1100 UTC 23 January 2019
Temperature: 14.0°C (57°F)
Dewpoint: 6.0°C (43°F) [RH = 58%]
Pressure (altimeter): 29.50 inches Hg (999.0 mb)
Winds: from the SSE (160 degrees) at 10 MPH (9 knots; 4.6 m/s)
Visibility: 6 or more miles (10+ km)
Ceiling: at least 12,000 feet AGL
Clouds: scattered clouds at 3000 feet AGL
scattered clouds at 4000 feet AGL
Weather: no significant weather observed at this time

METAR text: LYTV 231030Z 17008KT 130V220 9999 FEW030 SCT040 12/05 Q0999 NOSIG
Conditions at: LYTV (TIVAT , CS) observed 1030 UTC 23 January 2019
Temperature: 12.0°C (54°F)
Dewpoint: 5.0°C (41°F) [RH = 62%]
Pressure (altimeter): 29.50 inches Hg (999.0 mb)
Winds: from the S (170 degrees) at 9 MPH (8 knots; 4.1 m/s)
Visibility: 6 or more miles (10+ km)
Ceiling: at least 12,000 feet AGL
Clouds: few clouds at 3000 feet AGL
scattered clouds at 4000 feet AGL
Weather: no significant weather observed at this time

METAR text: LYTV 231000Z 16008KT 130V200 9999 FEW030 SCT040 13/05 Q1000 NOSIG
Conditions at: LYTV (TIVAT , CS) observed 1000 UTC 23 January 2019
Temperature: 13.0°C (55°F)
Dewpoint: 5.0°C (41°F) [RH = 58%]
Pressure (altimeter): 29.53 inches Hg (1000.0 mb)
Winds: from the SSE (160 degrees) at 9 MPH (8 knots; 4.1 m/s)
Visibility: 6 or more miles (10+ km)
Ceiling: at least 12,000 feet AGL
Clouds: few clouds at 3000 feet AGL
scattered clouds at 4000 feet AGL
Weather: no significant weather observed at this time

METAR text: LYTV 230930Z 33004KT 300V010 9999 FEW030 SCT040 11/07 Q1000 NOSIG
Conditions at: LYTV (TIVAT , CS) observed 0930 UTC 23 January 2019
Temperature: 11.0°C (52°F)
Dewpoint: 7.0°C (45°F) [RH = 76%]
Pressure (altimeter): 29.53 inches Hg (1000.0 mb)
Winds: from the NNW (330 degrees) at 5 MPH (4 knots; 2.1 m/s)
Visibility: 6 or more miles (10+ km)
Ceiling: at least 12,000 feet AGL
Clouds: few clouds at 3000 feet AGL
scattered clouds at 4000 feet AGL
Weather: no significant weather observed at this time

METAR text: LYTV 230900Z 26003KT 190V310 9999 FEW030 SCT040 10/07 Q1001 NOSIG
Conditions at: LYTV (TIVAT , CS) observed 0900 UTC 23 January 2019
Temperature: 10.0°C (50°F)
Dewpoint: 7.0°C (45°F) [RH = 82%]
Pressure (altimeter): 29.56 inches Hg (1001.0 mb)
Winds: from the W (260 degrees) at 3 MPH (3 knots; 1.5 m/s)
Visibility: 6 or more miles (10+ km)
Ceiling: at least 12,000 feet AGL
Clouds: few clouds at 3000 feet AGL
scattered clouds at 4000 feet AGL
Weather: no significant weather observed at this time

METAR text: LYTV 230830Z VRB03KT 9999 FEW033 SCT043 09/07 Q1001 NOSIG
Conditions at: LYTV (TIVAT , CS) observed 0830 UTC 23 January 2019
Temperature: 9.0°C (48°F)
Dewpoint: 7.0°C (45°F) [RH = 87%]
Pressure (altimeter): 29.56 inches Hg (1001.0 mb)
Winds: variable direction winds at 3 MPH (3 knots; 1.5 m/s)
Visibility: 6 or more miles (10+ km)
Ceiling: at least 12,000 feet AGL
Clouds: few clouds at 3300 feet AGL
scattered clouds at 4300 feet AGL
Weather: no significant weather observed at this time

METAR text: LYTV 230800Z VRB02KT 9999 -SHRA FEW033TCU SCT043 07/07 Q1001 TEMPO 5000 TSRA FEW030CB SCT040
Conditions at: LYTV (TIVAT , CS) observed 0800 UTC 23 January 2019
Temperature: 7.0°C (45°F)
Dewpoint: 7.0°C (45°F) [RH = 100%]
Pressure (altimeter): 29.56 inches Hg (1001.0 mb)
Winds: variable direction winds at 2 MPH (2 knots; 1.0 m/s)
Visibility: 6 or more miles (10+ km)
Ceiling: at least 12,000 feet AGL
Clouds: few clouds at 3300 feet AGL
scattered clouds at 4300 feet AGL
Weather: -SHRA  (light rain showers)

METAR text: LYTV 230730Z 00000KT 9999 FEW033 SCT043 06/05 Q1001 NOSIG
Conditions at: LYTV (TIVAT , CS) observed 0730 UTC 23 January 2019
Temperature: 6.0°C (43°F)
Dewpoint: 5.0°C (41°F) [RH = 93%]
Pressure (altimeter): 29.56 inches Hg (1001.0 mb)
Winds: calm
Visibility: 6 or more miles (10+ km)
Ceiling: at least 12,000 feet AGL
Clouds: few clouds at 3300 feet AGL
scattered clouds at 4300 feet AGL
Weather: no significant weather observed at this time

METAR text: LYTV 230700Z VRB01KT 9999 FEW033 SCT043 06/06 Q1001 NOSIG
Conditions at: LYTV (TIVAT , CS) observed 0700 UTC 23 January 2019
Temperature: 6.0°C (43°F)
Dewpoint: 6.0°C (43°F) [RH = 100%]
Pressure (altimeter): 29.56 inches Hg (1001.0 mb)
Winds: variable direction winds at 1 MPH (1 knots; 0.5 m/s)
Visibility: 6 or more miles (10+ km)
Ceiling: at least 12,000 feet AGL
Clouds: few clouds at 3300 feet AGL
scattered clouds at 4300 feet AGL
Weather: no significant weather observed at this time

METAR text: LYTV 230630Z 07003KT 9999 SCT040 SCT080 06/05 Q1001 NOSIG
Conditions at: LYTV (TIVAT , CS) observed 0630 UTC 23 January 2019
Temperature: 6.0°C (43°F)
Dewpoint: 5.0°C (41°F) [RH = 93%]
Pressure (altimeter): 29.56 inches Hg (1001.0 mb)
Winds: from the ENE (70 degrees) at 3 MPH (3 knots; 1.5 m/s)
Visibility: 6 or more miles (10+ km)
Ceiling: at least 12,000 feet AGL
Clouds: scattered clouds at 4000 feet AGL
scattered clouds at 8000 feet AGL
Weather: no significant weather observed at this time

METAR text: LYTV 230600Z VRB01KT 9999 FEW040 SCT080 06/05 Q1001 NOSIG
Conditions at: LYTV (TIVAT , CS) observed 0600 UTC 23 January 2019
Temperature: 6.0°C (43°F)
Dewpoint: 5.0°C (41°F) [RH = 93%]
Pressure (altimeter): 29.56 inches Hg (1001.0 mb)
Winds: variable direction winds at 1 MPH (1 knots; 0.5 m/s)
Visibility: 6 or more miles (10+ km)
Ceiling: at least 12,000 feet AGL
Clouds: few clouds at 4000 feet AGL
scattered clouds at 8000 feet AGL
Weather: no significant weather observed at this time

METAR text: LYTV 230530Z 00000KT 9999 FEW033 BKN080 06/06 Q1001
Conditions at: LYTV (TIVAT , CS) observed 0530 UTC 23 January 2019
Temperature: 6.0°C (43°F)
Dewpoint: 6.0°C (43°F) [RH = 100%]
Pressure (altimeter): 29.56 inches Hg (1001.0 mb)
Winds: calm
Visibility: 6 or more miles (10+ km)
Ceiling: 8000 feet AGL
Clouds: few clouds at 3300 feet AGL
broken clouds at 8000 feet AGL
Weather: no significant weather observed at this time

METAR text: LYTV 230500Z VRB02KT 9999 FEW033 BKN080 06/06 Q1001
Conditions at: LYTV (TIVAT , CS) observed 0500 UTC 23 January 2019
Temperature: 6.0°C (43°F)
Dewpoint: 6.0°C (43°F) [RH = 100%]
Pressure (altimeter): 29.56 inches Hg (1001.0 mb)
Winds: variable direction winds at 2 MPH (2 knots; 1.0 m/s)
Visibility: 6 or more miles (10+ km)
Ceiling: 8000 feet AGL
Clouds: few clouds at 3300 feet AGL
broken clouds at 8000 feet AGL
Weather: no significant weather observed at this time

METAR text: LYTV 230430Z 08003KT 050V110 9999 FEW033 BKN080 06/05 Q1001
Conditions at: LYTV (TIVAT , CS) observed 0430 UTC 23 January 2019
Temperature: 6.0°C (43°F)
Dewpoint: 5.0°C (41°F) [RH = 93%]
Pressure (altimeter): 29.56 inches Hg (1001.0 mb)
Winds: from the E (80 degrees) at 3 MPH (3 knots; 1.5 m/s)
Visibility: 6 or more miles (10+ km)
Ceiling: 8000 feet AGL
Clouds: few clouds at 3300 feet AGL
broken clouds at 8000 feet AGL
Weather: no significant weather observed at this time

METAR text: LYTV 230400Z 13002KT 9999 FEW033 BKN080 07/06 Q1001
Conditions at: LYTV (TIVAT , CS) observed 0400 UTC 23 January 2019
Temperature: 7.0°C (45°F)
Dewpoint: 6.0°C (43°F) [RH = 93%]
Pressure (altimeter): 29.56 inches Hg (1001.0 mb)
Winds: from the SE (130 degrees) at 2 MPH (2 knots; 1.0 m/s)
Visibility: 6 or more miles (10+ km)
Ceiling: 8000 feet AGL
Clouds: few clouds at 3300 feet AGL
broken clouds at 8000 feet AGL
Weather: no significant weather observed at this time

METAR text: LYTV 230300Z VRB01KT 9999 FEW033 SCT080 07/06 Q1002
Conditions at: LYTV (TIVAT , CS) observed 0300 UTC 23 January 2019
Temperature: 7.0°C (45°F)
Dewpoint: 6.0°C (43°F) [RH = 93%]
Pressure (altimeter): 29.59 inches Hg (1002.0 mb)
Winds: variable direction winds at 1 MPH (1 knots; 0.5 m/s)
Visibility: 6 or more miles (10+ km)
Ceiling: at least 12,000 feet AGL
Clouds: few clouds at 3300 feet AGL
scattered clouds at 8000 feet AGL
Weather: no significant weather observed at this time

METAR text: LYTV 230230Z 15003KT 110V170 9999 SCT033 FEW080 07/06 Q1002 RETS
Conditions at: LYTV (TIVAT , CS) observed 0230 UTC 23 January 2019
Temperature: 7.0°C (45°F)
Dewpoint: 6.0°C (43°F) [RH = 93%]
Pressure (altimeter): 29.59 inches Hg (1002.0 mb)
Winds: from the SSE (150 degrees) at 3 MPH (3 knots; 1.5 m/s)
Visibility: 6 or more miles (10+ km)
Ceiling: at least 12,000 feet AGL
Clouds: scattered clouds at 3300 feet AGL
few clouds at 8000 feet AGL
Weather: no significant weather observed at this time

METAR text: LYTV 230200Z 03003KT 310V110 9999 TS FEW025CB SCT030 BKN080 08/06 Q1003
Conditions at: LYTV (TIVAT , CS) observed 0200 UTC 23 January 2019
Temperature: 8.0°C (46°F)
Dewpoint: 6.0°C (43°F) [RH = 87%]
Pressure (altimeter): 29.62 inches Hg (1003.0 mb)
Winds: from the NNE (30 degrees) at 3 MPH (3 knots; 1.5 m/s)
Visibility: 6 or more miles (10+ km)
Ceiling: 8000 feet AGL
Clouds: few clouds at 2500 feet AGL
scattered clouds at 3000 feet AGL
broken clouds at 8000 feet AGL
Weather: TS  (thunderstorm)

METAR text: LYTV 230130Z 02003KT 300V090 9999 TS FEW025CB SCT030 BKN080 08/05 Q1003
Conditions at: LYTV (TIVAT , CS) observed 0130 UTC 23 January 2019
Temperature: 8.0°C (46°F)
Dewpoint: 5.0°C (41°F) [RH = 81%]
Pressure (altimeter): 29.62 inches Hg (1003.0 mb)
Winds: from the NNE (20 degrees) at 3 MPH (3 knots; 1.5 m/s)
Visibility: 6 or more miles (10+ km)
Ceiling: 8000 feet AGL
Clouds: few clouds at 2500 feet AGL
scattered clouds at 3000 feet AGL
broken clouds at 8000 feet AGL
Weather: TS  (thunderstorm)

METAR text: LYTV 230100Z VRB02KT 9999 TS FEW025CB SCT030 BKN080 07/07 Q1002
Conditions at: LYTV (TIVAT , CS) observed 0100 UTC 23 January 2019
Temperature: 7.0°C (45°F)
Dewpoint: 7.0°C (45°F) [RH = 100%]
Pressure (altimeter): 29.59 inches Hg (1002.0 mb)
Winds: variable direction winds at 2 MPH (2 knots; 1.0 m/s)
Visibility: 6 or more miles (10+ km)
Ceiling: 8000 feet AGL
Clouds: few clouds at 2500 feet AGL
scattered clouds at 3000 feet AGL
broken clouds at 8000 feet AGL
Weather: TS  (thunderstorm)

METAR text: LYTV 230030Z VRB01KT 9999 SCT025 BKN080 08/07 Q1002
Conditions at: LYTV (TIVAT , CS) observed 0030 UTC 23 January 2019
Temperature: 8.0°C (46°F)
Dewpoint: 7.0°C (45°F) [RH = 93%]
Pressure (altimeter): 29.59 inches Hg (1002.0 mb)
Winds: variable direction winds at 1 MPH (1 knots; 0.5 m/s)
Visibility: 6 or more miles (10+ km)
Ceiling: 8000 feet AGL
Clouds: scattered clouds at 2500 feet AGL
broken clouds at 8000 feet AGL
Weather: no significant weather observed at this time

METAR text: LYTV 230000Z 13004KT 9999 SCT025 BKN080 07/07 Q1003
Conditions at: LYTV (TIVAT , CS) observed 0000 UTC 23 January 2019
Temperature: 7.0°C (45°F)
Dewpoint: 7.0°C (45°F) [RH = 100%]
Pressure (altimeter): 29.62 inches Hg (1003.0 mb)
Winds: from the SE (130 degrees) at 5 MPH (4 knots; 2.1 m/s)
Visibility: 6 or more miles (10+ km)
Ceiling: 8000 feet AGL
Clouds: scattered clouds at 2500 feet AGL
broken clouds at 8000 feet AGL
Weather: no significant weather observed at this time

METAR text: LYTV 222300Z 18003KT 110V280 9999 SCT025 BKN080 08/08 Q1003
Conditions at: LYTV (TIVAT , CS) observed 2300 UTC 22 January 2019
Temperature: 8.0°C (46°F)
Dewpoint: 8.0°C (46°F) [RH = 100%]
Pressure (altimeter): 29.62 inches Hg (1003.0 mb)
Winds: from the S (180 degrees) at 3 MPH (3 knots; 1.5 m/s)
Visibility: 6 or more miles (10+ km)
Ceiling: 8000 feet AGL
Clouds: scattered clouds at 2500 feet AGL
broken clouds at 8000 feet AGL
Weather: no significant weather observed at this time

METAR text: LYTV 222230Z VRB02KT 9999 SCT025 BKN080 09/08 Q1003
Conditions at: LYTV (TIVAT , CS) observed 2230 UTC 22 January 2019
Temperature: 9.0°C (48°F)
Dewpoint: 8.0°C (46°F) [RH = 93%]
Pressure (altimeter): 29.62 inches Hg (1003.0 mb)
Winds: variable direction winds at 2 MPH (2 knots; 1.0 m/s)
Visibility: 6 or more miles (10+ km)
Ceiling: 8000 feet AGL
Clouds: scattered clouds at 2500 feet AGL
broken clouds at 8000 feet AGL
Weather: no significant weather observed at this time

METAR text: LYTV 222200Z VRB03KT 9999 SCT025 BKN080 09/08 Q1003
Conditions at: LYTV (TIVAT , CS) observed 2200 UTC 22 January 2019
Temperature: 9.0°C (48°F)
Dewpoint: 8.0°C (46°F) [RH = 93%]
Pressure (altimeter): 29.62 inches Hg (1003.0 mb)
Winds: variable direction winds at 3 MPH (3 knots; 1.5 m/s)
Visibility: 6 or more miles (10+ km)
Ceiling: 8000 feet AGL
Clouds: scattered clouds at 2500 feet AGL
broken clouds at 8000 feet AGL
Weather: no significant weather observed at this time

METAR text: LYTV 222130Z 08004KT 050V190 9999 -RA SCT025 BKN080 08/08 Q1003
Conditions at: LYTV (TIVAT , CS) observed 2130 UTC 22 January 2019
Temperature: 8.0°C (46°F)
Dewpoint: 8.0°C (46°F) [RH = 100%]
Pressure (altimeter): 29.62 inches Hg (1003.0 mb)
Winds: from the E (80 degrees) at 5 MPH (4 knots; 2.1 m/s)
Visibility: 6 or more miles (10+ km)
Ceiling: 8000 feet AGL
Clouds: scattered clouds at 2500 feet AGL
broken clouds at 8000 feet AGL
Weather: -RA  (light rain)

METAR text: LYTV 222100Z VRB02KT 9999 -RA SCT025 BKN080 08/08 Q1002
Conditions at: LYTV (TIVAT , CS) observed 2100 UTC 22 January 2019
Temperature: 8.0°C (46°F)
Dewpoint: 8.0°C (46°F) [RH = 100%]
Pressure (altimeter): 29.59 inches Hg (1002.0 mb)
Winds: variable direction winds at 2 MPH (2 knots; 1.0 m/s)
Visibility: 6 or more miles (10+ km)
Ceiling: 8000 feet AGL
Clouds: scattered clouds at 2500 feet AGL
broken clouds at 8000 feet AGL
Weather: -RA  (light rain)

METAR text: LYTV 222030Z VRB01KT 9999 -RA FEW010 SCT026TCU BKN033 08/08 Q1002 RETSRA
Conditions at: LYTV (TIVAT , CS) observed 2030 UTC 22 January 2019
Temperature: 8.0°C (46°F)
Dewpoint: 8.0°C (46°F) [RH = 100%]
Pressure (altimeter): 29.59 inches Hg (1002.0 mb)
Winds: variable direction winds at 1 MPH (1 knots; 0.5 m/s)
Visibility: 6 or more miles (10+ km)
Ceiling: 3300 feet AGL
Clouds: few clouds at 1000 feet AGL
scattered clouds at 2600 feet AGL
broken clouds at 3300 feet AGL
Weather: -RA  (light rain)

METAR text: LYTV 222000Z 07007KT 020V170 6000 TSRA FEW010 SCT026CB BKN033 08/07 Q1001 RESHRA
Conditions at: LYTV (TIVAT , CS) observed 2000 UTC 22 January 2019
Temperature: 8.0°C (46°F)
Dewpoint: 7.0°C (45°F) [RH = 93%]
Pressure (altimeter): 29.56 inches Hg (1001.0 mb)
Winds: from the ENE (70 degrees) at 8 MPH (7 knots; 3.6 m/s)
Visibility: 4 miles ( 6 km)
Ceiling: 3300 feet AGL
Clouds: few clouds at 1000 feet AGL
scattered clouds at 2600 feet AGL
broken clouds at 3300 feet AGL
Weather: TSRA  (rain associated with thunderstorm(s))

METAR text: LYTV 221930Z 15009KT 080V200 4000 +TSRA FEW010 SCT026CB BKN033 08/08 Q1002
Conditions at: LYTV (TIVAT , CS) observed 1930 UTC 22 January 2019
Temperature: 8.0°C (46°F)
Dewpoint: 8.0°C (46°F) [RH = 100%]
Pressure (altimeter): 29.59 inches Hg (1002.0 mb)
Winds: from the SSE (150 degrees) at 10 MPH (9 knots; 4.6 m/s)
Visibility: 2.49 miles (4.01 km)
Ceiling: 3300 feet AGL
Clouds: few clouds at 1000 feet AGL
scattered clouds at 2600 feet AGL
broken clouds at 3300 feet AGL
Weather: +TSRA  (heavy rain associated with thunderstorm(s))

METAR text: LYTV 221900Z VRB02KT 9999 RA VCTS FEW010 FEW026CB BKN033 08/08 Q1001
Conditions at: LYTV (TIVAT , CS) observed 1900 UTC 22 January 2019
Temperature: 8.0°C (46°F)
Dewpoint: 8.0°C (46°F) [RH = 100%]
Pressure (altimeter): 29.56 inches Hg (1001.0 mb)
Winds: variable direction winds at 2 MPH (2 knots; 1.0 m/s)
Visibility: 6 or more miles (10+ km)
Ceiling: 3300 feet AGL
Clouds: few clouds at 1000 feet AGL
few clouds at 2600 feet AGL
broken clouds at 3300 feet AGL
Weather: RA VCTS  (moderate rain, thunderstorm in vicinity)

METAR text: LYTV 221830Z 07005KT 020V130 9999 -RA FEW010 SCT026 BKN033 08/07 Q1002
Conditions at: LYTV (TIVAT , CS) observed 1830 UTC 22 January 2019
Temperature: 8.0°C (46°F)
Dewpoint: 7.0°C (45°F) [RH = 93%]
Pressure (altimeter): 29.59 inches Hg (1002.0 mb)
Winds: from the ENE (70 degrees) at 6 MPH (5 knots; 2.6 m/s)
Visibility: 6 or more miles (10+ km)
Ceiling: 3300 feet AGL
Clouds: few clouds at 1000 feet AGL
scattered clouds at 2600 feet AGL
broken clouds at 3300 feet AGL
Weather: -RA  (light rain)

METAR text: LYTV 221800Z 06005KT 030V130 9999 -RA FEW007 SCT020 BKN033 08/08 Q1002
Conditions at: LYTV (TIVAT , CS) observed 1800 UTC 22 January 2019
Temperature: 8.0°C (46°F)
Dewpoint: 8.0°C (46°F) [RH = 100%]
Pressure (altimeter): 29.59 inches Hg (1002.0 mb)
Winds: from the ENE (60 degrees) at 6 MPH (5 knots; 2.6 m/s)
Visibility: 6 or more miles (10+ km)
Ceiling: 3300 feet AGL
Clouds: few clouds at 700 feet AGL
scattered clouds at 2000 feet AGL
broken clouds at 3300 feet AGL
Weather: -RA  (light rain)

METAR text: LYTV 221730Z VRB03KT 9999 SCT020 BKN033 08/08 Q1002 NOSIG
Conditions at: LYTV (TIVAT , CS) observed 1730 UTC 22 January 2019
Temperature: 8.0°C (46°F)
Dewpoint: 8.0°C (46°F) [RH = 100%]
Pressure (altimeter): 29.59 inches Hg (1002.0 mb)
Winds: variable direction winds at 3 MPH (3 knots; 1.5 m/s)
Visibility: 6 or more miles (10+ km)
Ceiling: 3300 feet AGL
Clouds: scattered clouds at 2000 feet AGL
broken clouds at 3300 feet AGL
Weather: no significant weather observed at this time

METAR text: LYTV 221700Z 09003KT 020V160 9999 -RA SCT023 BKN033 08/08 Q1002 NOSIG
Conditions at: LYTV (TIVAT , CS) observed 1700 UTC 22 January 2019
Temperature: 8.0°C (46°F)
Dewpoint: 8.0°C (46°F) [RH = 100%]
Pressure (altimeter): 29.59 inches Hg (1002.0 mb)
Winds: from the E (90 degrees) at 3 MPH (3 knots; 1.5 m/s)
Visibility: 6 or more miles (10+ km)
Ceiling: 3300 feet AGL
Clouds: scattered clouds at 2300 feet AGL
broken clouds at 3300 feet AGL
Weather: -RA  (light rain)

Forecast for: LYTV (TIVAT , CS)
Text: TAF LYTV 232300Z 2400/2424 12007KT 9999 SCT040 BKN080 TX12/2413Z TN03/2406Z
Forecast period: 0000 to 1700 UTC 24 January 2019
Forecast type: FROM: standard forecast or significant change
Winds: from the ESE (120 degrees) at 8 MPH (7 knots; 3.6 m/s)
Visibility: 6 or more miles 10+ km)
Ceiling: 8000 feet AGL
Clouds: scattered clouds at 4000 feet AGL
broken clouds at 8000 feet AGL
Weather: no significant weather forecast for this period
Text: PROB40
Forecast period: 0000 to 0700 UTC 24 January 2019
Forecast type: TEMPORARY: The following changes expected for less than half the time period
Visibility: 1.86 miles (2.99 km)
Ceiling: unknown
Clouds: missing
Weather: BR  (mist)
Text: TEMPO 2400/2407 3000 BR
Forecast period: 1700 UTC 24 January 2019 to 0000 UTC 25 January 2019
Forecast type: BECOMING: Conditions expected to become as follows by 1900 UTC 24 January 2019
Winds: from the NNE (30 degrees) at 18 MPH (16 knots; 8.2 m/s)
gusting to 34 MPH (30 knots; 15.4 m/s)
Visibility: 6 or more miles 10+ km)
Ceiling: 8000 feet AGL
Clouds: scattered clouds at 4000 feet AGL
broken clouds at 8000 feet AGL
Weather: no significant weather forecast for this period